Time;durP1;ratioP1;P1;durP2;ratioP2;P2;SDS_P1;SDS_P2;PMS_P1;PMS_P2;Temp;Humidity;BMP_temperature;BMP_pressure;BME280_temperature;BME280_humidity;BME280_pressure;Samples;Min_cycle;Max_cycle;Signal;HPM_P1;HPM_P2
2023/03/29 00:01:17;;;;;;;2.22;0.80;;;;;;;17.95;48.64;99886.41;5012253;28;20030;-70
2023/03/29 00:03:46;;;;;;;2.85;0.80;;;;;;;17.94;48.73;99895.25;5012335;28;20026;-68
2023/03/29 00:06:20;;;;;;;2.85;0.80;;;;;;;17.95;48.92;99883.78;5012266;28;20028;-70
2023/03/29 00:08:49;;;;;;;1.52;0.70;;;;;;;17.93;48.84;99885.59;5012229;28;20103;-70
2023/03/29 00:11:16;;;;;;;1.65;0.70;;;;;;;17.94;48.73;99884.69;5012019;28;20484;-70
2023/03/29 00:13:42;;;;;;;2.13;0.70;;;;;;;17.92;48.63;99889.16;5012215;28;20026;-69
2023/03/29 00:16:08;;;;;;;2.58;0.80;;;;;;;17.91;48.76;99886.59;5012179;28;20037;-70
2023/03/29 00:18:34;;;;;;;1.73;0.80;;;;;;;17.93;49.05;99882.13;5012186;28;20026;-71
2023/03/29 00:20:59;;;;;;;2.03;0.68;;;;;;;17.93;48.91;99879.47;5012139;28;20509;-70
2023/03/29 00:23:25;;;;;;;1.10;0.60;;;;;;;17.92;49.34;99875.13;5012043;28;20022;-70
2023/03/29 00:25:54;;;;;;;2.55;0.93;;;;;;;17.91;48.95;99858.41;4996703;28;20089;-70
2023/03/29 00:28:20;;;;;;;2.00;0.80;;;;;;;17.93;49.14;99861.84;4992336;28;20595;-70
2023/03/29 00:30:46;;;;;;;2.38;0.80;;;;;;;17.92;49.51;99844.28;4992588;28;20039;-70
2023/03/29 00:33:12;;;;;;;2.78;0.80;;;;;;;17.92;49.64;99843.44;4992604;28;20022;-70
2023/03/29 00:35:38;;;;;;;2.47;0.82;;;;;;;17.92;50.00;99839.00;5004878;28;20449;-71
2023/03/29 00:38:05;;;;;;;1.83;0.98;;;;;;;17.91;50.33;99832.00;5012048;28;20076;-70
2023/03/29 00:40:31;;;;;;;2.70;0.90;;;;;;;17.90;49.83;99830.28;5011573;28;20022;-70
2023/03/29 00:42:57;;;;;;;3.70;0.95;;;;;;;17.89;49.74;99822.44;5013422;28;20029;-70
2023/03/29 00:45:29;;;;;;;2.67;1.02;;;;;;;17.87;49.81;99827.78;5005243;28;20098;-70
2023/03/29 00:48:01;;;;;;;3.33;1.17;;;;;;;17.89;49.77;99827.72;4994744;28;20034;-70
2023/03/29 00:50:35;;;;;;;2.30;0.80;;;;;;;17.86;49.77;99812.84;5012858;28;20050;-71
2023/03/29 00:53:07;;;;;;;2.28;0.95;;;;;;;17.85;49.64;99812.03;4980412;28;20034;-70
2023/03/29 00:55:42;;;;;;;2.05;0.90;;;;;;;17.84;49.85;99810.28;5003743;28;20026;-71
2023/03/29 00:58:11;;;;;;;3.10;0.90;;;;;;;17.85;49.97;99806.75;5015498;28;20442;-70
2023/03/29 01:00:42;;;;;;;2.17;0.60;;;;;;;17.81;50.00;99799.88;5015670;28;20033;-70
2023/03/29 01:03:12;;;;;;;1.13;0.55;;;;;;;17.84;49.81;99804.16;4997578;28;20041;-70
2023/03/29 01:05:43;;;;;;;2.53;0.90;;;;;;;17.84;49.59;99799.72;5006646;28;20492;-70
2023/03/29 01:08:17;;;;;;;2.15;0.77;;;;;;;17.84;49.56;99788.31;4995402;28;20070;-70
2023/03/29 01:10:48;;;;;;;1.73;0.70;;;;;;;17.82;49.42;99791.00;4995713;28;20030;-70
2023/03/29 01:13:25;;;;;;;2.78;0.90;;;;;;;17.83;49.56;99797.16;4995752;28;20031;-70
2023/03/29 01:15:53;;;;;;;2.00;0.90;;;;;;;17.78;49.69;99794.69;5005995;28;20034;-70
2023/03/29 01:18:21;;;;;;;2.88;0.95;;;;;;;17.77;49.56;99797.44;5014969;28;20033;-70
2023/03/29 01:21:03;;;;;;;2.33;0.55;;;;;;;17.76;49.72;99791.28;5014938;28;20049;-70
2023/03/29 01:23:52;;;;;;;2.00;0.70;;;;;;;17.76;49.58;99779.84;5014740;28;20033;-70
2023/03/29 01:26:20;;;;;;;1.98;0.75;;;;;;;17.74;49.79;99784.34;5004594;28;20038;-69
2023/03/29 01:29:00;;;;;;;2.08;0.90;;;;;;;17.70;49.78;99779.22;4995222;28;20418;-71
2023/03/29 01:31:29;;;;;;;2.88;0.80;;;;;;;17.73;49.97;99782.63;4995410;28;20038;-70
2023/03/29 01:34:08;;;;;;;1.67;0.90;;;;;;;17.69;49.55;99784.53;4995073;28;20028;-70
2023/03/29 01:36:49;;;;;;;2.17;0.88;;;;;;;17.67;49.69;99787.25;5007682;28;20101;-71
2023/03/29 01:39:15;;;;;;;1.20;0.60;;;;;;;17.70;49.58;99802.97;5014467;28;20391;-71
2023/03/29 01:41:59;;;;;;;2.08;0.63;;;;;;;17.71;50.06;99804.69;5014588;28;20491;-71
2023/03/29 01:44:50;;;;;;;2.25;0.80;;;;;;;17.71;50.05;99804.69;5014543;28;20068;-70
2023/03/29 01:47:31;;;;;;;1.80;0.70;;;;;;;17.73;49.66;99801.09;5013550;28;20038;-70
2023/03/29 01:50:14;;;;;;;1.80;0.80;;;;;;;17.70;50.14;99797.69;5014420;28;20132;-70
2023/03/29 01:52:48;;;;;;;1.65;0.90;;;;;;;17.71;50.02;99802.03;4980873;28;20030;-71
2023/03/29 01:55:37;;;;;;;2.80;0.85;;;;;;;17.72;50.04;99800.22;5011135;28;20014;-70
2023/03/29 01:58:05;;;;;;;1.83;0.77;;;;;;;17.71;50.32;99794.13;5014275;28;20121;-70
2023/03/29 02:00:33;;;;;;;1.48;0.68;;;;;;;17.73;50.21;99801.09;5014375;28;20026;-70
2023/03/29 02:03:04;;;;;;;2.10;0.80;;;;;;;17.71;50.29;99799.41;5014282;28;20018;-70
2023/03/29 02:05:30;;;;;;;2.13;0.88;;;;;;;17.74;50.03;99792.25;5002978;28;20488;-69
2023/03/29 02:07:58;;;;;;;1.10;0.60;;;;;;;17.73;50.12;99795.81;4994148;28;20034;-70
2023/03/29 02:10:25;;;;;;;1.88;0.90;;;;;;;17.75;50.03;99793.97;4994692;28;20443;-70
2023/03/29 02:12:51;;;;;;;2.53;0.85;;;;;;;17.76;50.24;99795.69;4994717;28;20022;-70
2023/03/29 02:15:19;;;;;;;1.15;0.57;;;;;;;17.75;50.24;99799.25;5003077;28;20026;-70
2023/03/29 02:17:46;;;;;;;1.95;0.73;;;;;;;17.79;50.37;99800.84;4994551;28;20022;-71
2023/03/29 02:20:25;;;;;;;2.05;0.60;;;;;;;17.78;50.42;99801.78;4994245;28;20041;-70
2023/03/29 02:23:03;;;;;;;2.05;0.82;;;;;;;17.76;50.25;99800.97;4994032;28;20032;-71
2023/03/29 02:25:29;;;;;;;2.42;0.98;;;;;;;17.75;50.18;99800.13;4994416;28;20391;-70
2023/03/29 02:27:55;;;;;;;1.48;0.73;;;;;;;17.75;50.24;99796.63;4994209;28;20026;-70
2023/03/29 02:30:26;;;;;;;2.13;0.90;;;;;;;17.71;50.67;99794.13;4994244;28;20384;-70
2023/03/29 02:33:04;;;;;;;1.70;0.75;;;;;;;17.71;50.40;99793.25;4994216;28;20018;-70
2023/03/29 02:35:52;;;;;;;2.10;0.70;;;;;;;17.66;50.13;99790.81;5006787;28;20113;-71
2023/03/29 02:38:19;;;;;;;2.90;0.90;;;;;;;17.65;50.21;99794.38;5013580;28;20025;-71
2023/03/29 02:40:46;;;;;;;1.95;0.80;;;;;;;17.65;50.23;99799.66;5013804;28;20060;-70
2023/03/29 02:43:14;;;;;;;1.88;0.85;;;;;;;17.67;50.07;99812.78;5013568;28;20026;-71
2023/03/29 02:45:41;;;;;;;1.23;0.60;;;;;;;17.64;50.35;99812.91;4999411;28;20030;-70
2023/03/29 02:48:12;;;;;;;1.73;0.70;;;;;;;17.64;50.54;99813.78;4993746;28;20034;-70
2023/03/29 02:50:41;;;;;;;1.90;0.70;;;;;;;17.68;50.58;99814.50;5011140;28;20045;-70
2023/03/29 02:53:29;;;;;;;1.13;0.60;;;;;;;17.65;50.11;99812.84;4995020;28;20026;-69
2023/03/29 02:55:55;;;;;;;1.00;0.63;;;;;;;17.63;50.45;99806.75;5010751;28;20081;-71
2023/03/29 02:58:27;;;;;;;1.58;0.65;;;;;;;17.61;50.21;99805.97;5013250;28;20030;-68
2023/03/29 03:00:55;;;;;;;1.58;0.80;;;;;;;17.61;50.56;99808.59;5013243;28;20033;-68
2023/03/29 03:03:20;;;;;;;1.50;0.68;;;;;;;17.59;50.54;99815.75;5013151;28;20030;-71
2023/03/29 03:05:46;;;;;;;2.80;0.70;;;;;;;17.60;50.30;99822.72;4997421;28;20450;-70
2023/03/29 03:08:12;;;;;;;3.10;0.80;;;;;;;17.59;50.39;99826.31;4993491;28;20496;-71
2023/03/29 03:10:38;;;;;;;1.17;0.73;;;;;;;17.57;50.39;99825.47;4993705;28;20400;-70
2023/03/29 03:13:04;;;;;;;1.88;0.70;;;;;;;17.57;50.54;99825.47;4993449;28;20030;-71
2023/03/29 03:15:31;;;;;;;1.33;0.60;;;;;;;17.58;50.56;99820.16;5005795;28;20113;-71
2023/03/29 03:17:57;;;;;;;1.58;0.75;;;;;;;17.57;50.75;99821.06;5013006;28;20036;-71
2023/03/29 03:20:22;;;;;;;1.80;0.77;;;;;;;17.57;50.44;99812.28;5012701;28;20029;-70
2023/03/29 03:22:48;;;;;;;1.23;0.73;;;;;;;17.56;50.71;99815.84;5012777;28;20613;-71
2023/03/29 03:25:19;;;;;;;2.17;0.80;;;;;;;17.54;50.68;99818.53;5002879;28;20077;-70
2023/03/29 03:27:45;;;;;;;2.13;0.65;;;;;;;17.56;50.61;99818.50;4993019;28;20088;-69
2023/03/29 03:30:11;;;;;;;1.58;0.70;;;;;;;17.54;50.71;99817.72;4993224;28;20113;-70
2023/03/29 03:32:37;;;;;;;2.47;0.80;;;;;;;17.53;50.77;99806.28;4993158;28;20496;-71
2023/03/29 03:35:04;;;;;;;2.28;0.80;;;;;;;17.54;50.75;99801.88;4986440;28;20038;-70
2023/03/29 03:37:30;;;;;;;2.17;1.13;;;;;;;17.51;50.63;99797.59;4992813;28;20037;-71
2023/03/29 03:39:56;;;;;;;1.98;0.75;;;;;;;17.53;50.75;99784.34;4993117;28;20053;-70
2023/03/29 03:42:21;;;;;;;2.53;1.00;;;;;;;17.51;50.64;99797.59;4993099;28;20486;-71
2023/03/29 03:44:47;;;;;;;2.03;1.00;;;;;;;17.52;50.70;99793.16;4992978;28;20117;-70
2023/03/29 03:47:13;;;;;;;1.83;0.82;;;;;;;17.52;50.68;99793.16;4992776;28;20089;-70
2023/03/29 03:49:39;;;;;;;0.93;0.57;;;;;;;17.49;50.29;99783.59;4992167;28;20459;-70
2023/03/29 03:52:05;;;;;;;1.35;0.65;;;;;;;17.47;50.65;99780.16;4981917;28;20037;-71
2023/03/29 03:54:31;;;;;;;1.23;0.70;;;;;;;17.47;50.49;99772.25;4976509;28;20019;-70
2023/03/29 03:56:57;;;;;;;2.08;0.70;;;;;;;17.44;50.54;99767.94;4992683;28;20035;-71
2023/03/29 03:59:23;;;;;;;3.03;0.80;;;;;;;17.42;50.71;99772.44;4992716;28;20034;-71
2023/03/29 04:01:49;;;;;;;2.45;0.70;;;;;;;17.42;50.63;99763.66;4992725;28;20026;-71
2023/03/29 04:04:15;;;;;;;1.45;0.60;;;;;;;17.39;50.40;99756.72;4991673;28;20396;-71
2023/03/29 04:06:41;;;;;;;2.38;0.80;;;;;;;17.41;50.61;99757.53;4975359;28;20030;-71
2023/03/29 04:09:08;;;;;;;2.25;0.80;;;;;;;17.41;50.72;99749.63;4973413;28;20019;-70
2023/03/29 04:11:33;;;;;;;1.50;0.60;;;;;;;17.43;50.88;99758.31;4973158;28;20396;-70
2023/03/29 04:13:59;;;;;;;1.05;0.55;;;;;;;17.44;50.68;99754.75;4973142;28;20035;-70
2023/03/29 04:16:25;;;;;;;1.08;0.60;;;;;;;17.43;50.66;99747.75;4975135;28;20126;-70
2023/03/29 04:18:50;;;;;;;1.33;0.75;;;;;;;17.41;50.51;99754.91;4995272;28;20073;-70
2023/03/29 04:21:16;;;;;;;3.50;1.00;;;;;;;17.39;50.50;99746.16;4996778;28;20441;-70
2023/03/29 04:23:41;;;;;;;2.53;0.95;;;;;;;17.39;50.56;99740.88;4996641;28;20045;-69
2023/03/29 04:26:08;;;;;;;1.75;0.90;;;;;;;17.37;50.32;99745.38;4978893;28;20033;-70
2023/03/29 04:28:33;;;;;;;1.58;0.68;;;;;;;17.34;50.37;99748.13;4977308;28;20089;-70
2023/03/29 04:30:59;;;;;;;1.45;0.55;;;;;;;17.35;50.47;99744.59;4977083;28;20039;-71
2023/03/29 04:33:24;;;;;;;2.10;1.05;;;;;;;17.31;50.27;99743.00;4976118;28;20030;-69
2023/03/29 04:35:50;;;;;;;2.25;0.88;;;;;;;17.31;50.44;99737.72;4976851;28;20038;-69
2023/03/29 04:38:16;;;;;;;2.55;0.90;;;;;;;17.29;50.21;99739.56;4993403;28;20030;-70
2023/03/29 04:40:42;;;;;;;1.13;0.73;;;;;;;17.28;50.22;99737.84;4996214;28;20029;-70
2023/03/29 04:43:08;;;;;;;1.50;0.80;;;;;;;17.30;49.71;99736.84;4996226;28;20061;-70
2023/03/29 04:45:33;;;;;;;1.17;0.60;;;;;;;17.31;49.97;99729.81;4996217;28;20432;-69
2023/03/29 04:47:58;;;;;;;3.05;1.17;;;;;;;17.33;49.83;99725.31;4981353;28;20098;-71
2023/03/29 04:50:24;;;;;;;2.13;0.80;;;;;;;17.35;50.32;99727.91;5007926;28;20046;-70
2023/03/29 04:52:50;;;;;;;1.27;0.60;;;;;;;17.38;49.96;99739.19;4998578;28;20431;-71
2023/03/29 04:55:15;;;;;;;0.70;0.55;;;;;;;17.40;50.41;99747.91;4997941;28;20035;-71
2023/03/29 04:57:43;;;;;;;2.40;0.68;;;;;;;17.42;50.14;99756.59;5008753;28;20431;-71
2023/03/29 05:00:16;;;;;;;1.83;0.73;;;;;;;17.42;50.47;99759.25;5015171;28;20058;-70
2023/03/29 05:02:45;;;;;;;1.20;0.70;;;;;;;17.45;50.44;99760.91;5015444;28;20030;-69
2023/03/29 05:05:11;;;;;;;1.63;0.80;;;;;;;17.50;50.82;99764.22;5015237;28;20052;-69
2023/03/29 05:07:36;;;;;;;1.67;0.80;;;;;;;17.54;50.46;99765.78;5004076;28;20041;-70
2023/03/29 05:10:02;;;;;;;1.52;0.70;;;;;;;17.57;50.16;99767.44;4995839;28;20027;-70
2023/03/29 05:12:28;;;;;;;0.73;0.52;;;;;;;17.55;50.37;99767.53;4995688;28;20030;-70
2023/03/29 05:14:53;;;;;;;2.35;0.80;;;;;;;17.57;50.42;99767.44;4994347;28;20026;-70
2023/03/29 05:17:20;;;;;;;1.58;0.55;;;;;;;17.58;50.39;99771.81;5004134;28;20018;-69
2023/03/29 05:19:45;;;;;;;1.42;0.68;;;;;;;17.55;50.30;99772.78;5015011;28;20092;-71
2023/03/29 05:22:11;;;;;;;1.73;0.90;;;;;;;17.56;50.67;99769.22;5015184;28;20018;-70
2023/03/29 05:24:36;;;;;;;1.02;0.47;;;;;;;17.59;50.84;99762.97;5015203;28;20526;-70
2023/03/29 05:27:02;;;;;;;2.22;0.80;;;;;;;17.61;50.50;99769.03;5008790;28;20077;-71
2023/03/29 05:29:27;;;;;;;1.98;0.60;;;;;;;17.61;50.48;99765.53;4994940;28;20058;-71
2023/03/29 05:31:53;;;;;;;1.52;0.70;;;;;;;17.57;50.51;99775.34;4977982;28;20023;-70
2023/03/29 05:34:18;;;;;;;1.52;0.73;;;;;;;17.61;50.48;99771.66;4995407;28;20022;-70
2023/03/29 05:36:44;;;;;;;1.30;0.70;;;;;;;17.59;50.79;99768.25;4995264;28;20395;-70
2023/03/29 05:39:10;;;;;;;1.35;0.73;;;;;;;17.58;50.39;99771.81;4995090;28;20031;-71
2023/03/29 05:41:36;;;;;;;1.15;0.82;;;;;;;17.58;50.36;99771.81;4995059;28;20049;-71
2023/03/29 05:44:01;;;;;;;1.05;0.52;;;;;;;17.57;50.64;99775.34;4994812;28;20030;-68
2023/03/29 05:46:27;;;;;;;1.67;0.70;;;;;;;17.57;50.57;99780.63;4994979;28;20030;-70
2023/03/29 05:48:53;;;;;;;3.15;0.82;;;;;;;17.59;50.62;99778.81;4996114;28;20137;-71
2023/03/29 05:51:22;;;;;;;2.50;0.77;;;;;;;17.57;50.52;99776.22;4999408;28;20026;-70
2023/03/29 05:53:48;;;;;;;2.03;0.90;;;;;;;17.58;50.83;99771.81;5004765;28;20026;-70
2023/03/29 05:56:15;;;;;;;2.17;0.73;;;;;;;17.58;50.45;99766.53;4994719;28;20411;-69
2023/03/29 05:58:41;;;;;;;3.80;1.20;;;;;;;17.55;50.51;99756.97;4994440;28;20065;-70
2023/03/29 06:01:13;;;;;;;1.50;0.75;;;;;;;17.57;50.44;99759.50;4994722;28;20050;-70
2023/03/29 06:03:39;;;;;;;1.55;0.80;;;;;;;17.54;50.55;99770.22;5011577;28;20091;-71
2023/03/29 06:06:05;;;;;;;4.03;0.90;;;;;;;17.51;50.54;99775.59;5014390;28;20572;-70
2023/03/29 06:08:32;;;;;;;3.72;0.93;;;;;;;17.51;50.75;99775.59;5014003;28;20033;-70
2023/03/29 06:11:04;;;;;;;3.13;0.90;;;;;;;17.49;50.39;99774.81;4996639;28;20030;-70
2023/03/29 06:13:32;;;;;;;2.33;1.00;;;;;;;17.50;50.62;99773.91;4998161;28;20030;-70
2023/03/29 06:15:59;;;;;;;4.35;1.00;;;;;;;17.49;50.52;99780.97;4994648;28;20037;-69
2023/03/29 06:18:25;;;;;;;2.60;0.90;;;;;;;17.46;50.63;99783.72;4994522;28;20022;-70
2023/03/29 06:20:51;;;;;;;3.53;1.05;;;;;;;17.45;50.79;99793.41;4994495;28;20392;-70
2023/03/29 06:23:18;;;;;;;3.58;1.20;;;;;;;17.45;50.73;99782.84;5004670;28;20046;-70
2023/03/29 06:25:44;;;;;;;4.72;1.65;;;;;;;17.53;51.74;99784.34;5013818;28;20476;-70
2023/03/29 06:28:10;;;;;;;5.95;1.80;;;;;;;17.57;52.28;99780.63;5013529;28;20113;-69
2023/03/29 06:30:37;;;;;;;7.13;1.70;;;;;;;17.60;52.25;99783.16;4997029;28;20049;-70
2023/03/29 06:33:05;;;;;;;9.43;2.35;;;;;;;17.63;52.12;99775.09;4996503;28;20541;-71
2023/03/29 06:35:31;;;;;;;8.40;2.03;;;;;;;17.59;51.97;99770.88;4994310;28;20443;-71
2023/03/29 06:37:57;;;;;;;12.98;2.58;;;;;;;17.58;52.13;99777.09;4993474;28;20031;-65
2023/03/29 06:40:23;;;;;;;4.68;1.48;;;;;;;17.54;52.30;99770.22;4993287;28;20061;-67
2023/03/29 06:42:56;;;;;;;5.78;1.52;;;;;;;17.55;52.36;99787.75;5003191;28;20037;-68
2023/03/29 06:45:25;;;;;;;7.68;1.75;;;;;;;17.58;52.18;99787.66;5002886;28;20134;-67
2023/03/29 06:47:51;;;;;;;6.18;1.55;;;;;;;17.59;52.62;99799.91;4998699;28;20022;-67
2023/03/29 06:50:17;;;;;;;6.32;1.70;;;;;;;17.58;52.77;99808.75;5002812;28;20045;-68
2023/03/29 06:52:44;;;;;;;3.92;1.42;;;;;;;17.63;52.65;99796.19;5001866;28;20034;-68
2023/03/29 06:55:11;;;;;;;6.72;1.55;;;;;;;17.65;53.00;99810.22;4994239;28;20084;-69
2023/03/29 06:57:37;;;;;;;6.25;1.50;;;;;;;17.64;52.98;99797.06;4977005;28;20089;-67
2023/03/29 07:00:17;;;;;;;9.73;1.75;;;;;;;17.68;52.87;99788.13;4993620;28;20026;-69
2023/03/29 07:02:44;;;;;;;10.55;1.83;;;;;;;17.66;52.89;99790.81;4993510;28;20019;-68
2023/03/29 07:05:12;;;;;;;10.10;2.17;;;;;;;17.67;53.12;99792.53;4994751;28;20033;-68
2023/03/29 07:08:14;;;;;;;6.03;1.60;;;;;;;17.69;52.63;99795.94;5012852;28;20029;-73
2023/03/29 07:10:37;;;;;;;7.55;1.60;;;;;;;17.70;52.67;99808.25;5011006;28;20381;-74
2023/03/29 07:13:04;;;;;;;6.75;1.45;;;;;;;17.73;52.57;99811.66;5012922;28;20032;-73
2023/03/29 07:15:31;;;;;;;8.63;1.52;;;;;;;17.76;52.66;99811.53;5012826;28;20041;-73
2023/03/29 07:17:57;;;;;;;4.07;1.45;;;;;;;17.73;52.67;99804.63;5012851;28;20026;-73
2023/03/29 07:20:23;;;;;;;9.05;1.58;;;;;;;17.74;52.78;99808.09;5012808;28;20503;-73
2023/03/29 07:22:50;;;;;;;5.35;1.58;;;;;;;17.76;52.70;99803.59;5012839;28;20014;-73
2023/03/29 07:25:17;;;;;;;3.15;1.27;;;;;;;17.79;52.37;99806.13;5012476;28;20520;-74
2023/03/29 07:27:44;;;;;;;6.05;1.58;;;;;;;17.80;52.44;99808.72;5012606;28;20033;-73
2023/03/29 07:30:12;;;;;;;5.55;1.42;;;;;;;17.81;52.31;99791.06;5012719;28;20049;-73
2023/03/29 07:32:40;;;;;;;6.72;1.70;;;;;;;17.80;52.11;99797.28;5012626;28;20030;-73
2023/03/29 07:35:06;;;;;;;3.85;1.25;;;;;;;17.80;52.11;99797.28;5012594;28;20376;-73
2023/03/29 07:37:36;;;;;;;3.00;1.13;;;;;;;17.79;51.96;99796.44;5005602;28;20037;-73
2023/03/29 07:40:08;;;;;;;3.90;1.40;;;;;;;17.80;52.10;99792.00;4992485;28;20047;-74
2023/03/29 07:42:35;;;;;;;4.55;1.35;;;;;;;17.79;52.13;99790.28;4993045;28;20030;-74
2023/03/29 07:45:05;;;;;;;5.97;1.45;;;;;;;17.79;51.79;99787.66;4993373;28;20050;-73
2023/03/29 07:47:31;;;;;;;3.60;1.20;;;;;;;17.81;52.01;99791.06;4992566;28;20538;-74
2023/03/29 07:49:58;;;;;;;4.28;1.20;;;;;;;17.81;51.75;99793.72;4992437;28;20074;-74
2023/03/29 07:52:26;;;;;;;5.97;1.25;;;;;;;17.82;51.65;99784.91;4992722;28;20117;-72
2023/03/29 07:54:52;;;;;;;3.75;1.20;;;;;;;17.83;51.71;99792.72;4991963;28;20054;-74
2023/03/29 07:57:18;;;;;;;4.18;1.27;;;;;;;17.83;51.51;99782.16;4992441;28;20051;-73
2023/03/29 07:59:43;;;;;;;6.97;2.45;;;;;;;17.86;51.43;99794.38;5000924;28;20076;-73
2023/03/29 08:02:10;;;;;;;4.57;1.42;;;;;;;17.86;51.38;99789.09;5012224;28;20081;-73
2023/03/29 08:04:35;;;;;;;4.45;1.45;;;;;;;17.86;51.60;99791.75;5012236;28;20022;-74
2023/03/29 08:07:00;;;;;;;4.82;1.83;;;;;;;17.85;51.65;99790.03;5011904;28;20383;-73
2023/03/29 08:09:26;;;;;;;5.82;1.50;;;;;;;17.86;51.55;99791.75;5005408;28;20018;-73
2023/03/29 08:11:52;;;;;;;4.57;1.42;;;;;;;17.88;51.22;99792.56;4992536;28;20433;-73
2023/03/29 08:14:18;;;;;;;3.90;1.33;;;;;;;17.89;51.15;99790.75;4991854;28;20730;-73
2023/03/29 08:16:43;;;;;;;5.57;1.30;;;;;;;17.88;51.20;99800.47;4992273;28;20026;-73
2023/03/29 08:19:09;;;;;;;3.42;1.10;;;;;;;17.90;51.18;99785.41;4994549;28;20553;-73
2023/03/29 08:21:35;;;;;;;4.45;1.30;;;;;;;17.91;51.27;99791.56;4992476;28;20061;-75
2023/03/29 08:24:00;;;;;;;3.13;1.08;;;;;;;17.91;51.18;99779.19;4992079;28;20081;-73
2023/03/29 08:26:26;;;;;;;2.55;1.20;;;;;;;17.92;50.90;99788.84;4992180;28;20026;-73
2023/03/29 08:28:51;;;;;;;2.88;1.30;;;;;;;17.94;50.88;99794.94;4992300;28;20030;-73
2023/03/29 08:31:17;;;;;;;6.25;1.70;;;;;;;17.94;51.16;99789.66;4992443;28;20038;-74
2023/03/29 08:33:43;;;;;;;4.88;1.63;;;;;;;17.96;51.16;99792.19;4996975;28;20475;-73
2023/03/29 08:36:09;;;;;;;3.22;1.40;;;;;;;17.98;51.19;99796.50;5011840;28;20024;-74
2023/03/29 08:38:34;;;;;;;4.75;1.40;;;;;;;17.97;51.03;99788.66;5011644;28;20431;-73
2023/03/29 08:41:00;;;;;;;3.85;1.30;;;;;;;17.99;50.91;99794.72;5011864;28;20026;-73
2023/03/29 08:43:50;;;;;;;5.47;1.48;;;;;;;18.01;50.93;99799.94;5011717;28;20078;-73
2023/03/29 08:46:41;;;;;;;4.28;1.35;;;;;;;18.00;51.01;99803.50;5011773;28;20041;-73
2023/03/29 08:49:09;;;;;;;4.47;1.35;;;;;;;18.01;51.07;99795.50;5008683;28;20511;-73
2023/03/29 08:51:39;;;;;;;4.43;1.70;;;;;;;18.06;50.81;99805.91;4992075;28;20103;-73
2023/03/29 08:54:11;;;;;;;4.60;1.50;;;;;;;18.04;50.81;99799.78;4991696;28;20370;-73
2023/03/29 08:56:39;;;;;;;3.20;1.25;;;;;;;18.03;50.62;99795.44;4992257;28;20037;-73
2023/03/29 08:59:16;;;;;;;2.67;1.10;;;;;;;18.07;50.71;99791.78;4992157;28;20030;-73
2023/03/29 09:01:42;;;;;;;4.15;1.13;;;;;;;18.05;50.76;99796.22;4991831;28;20097;-73
2023/03/29 09:04:24;;;;;;;4.07;1.50;;;;;;;18.06;50.69;99790.91;4993314;28;20081;-74
2023/03/29 09:06:49;;;;;;;2.92;1.27;;;;;;;18.03;51.02;99793.66;4975929;28;20073;-72
2023/03/29 09:09:19;;;;;;;2.95;1.55;;;;;;;18.08;50.60;99793.50;4992736;28;20022;-73
2023/03/29 09:12:10;;;;;;;4.63;1.48;;;;;;;18.09;50.72;99788.16;5014969;28;20571;-73
2023/03/29 09:14:45;;;;;;;3.63;1.50;;;;;;;18.11;50.58;99790.72;5015317;28;20029;-73
2023/03/29 09:17:35;;;;;;;4.15;1.38;;;;;;;18.11;50.77;99777.50;5014925;28;20034;-73
2023/03/29 09:20:06;;;;;;;4.45;1.55;;;;;;;18.14;50.60;99781.78;4999277;28;20030;-73
2023/03/29 09:22:34;;;;;;;4.18;1.40;;;;;;;18.13;50.62;99786.22;4995200;28;20026;-74
2023/03/29 09:25:24;;;;;;;2.88;1.33;;;;;;;18.16;50.32;99774.69;4995200;28;20061;-73
2023/03/29 09:27:55;;;;;;;3.38;1.23;;;;;;;18.16;50.74;99770.25;4997702;28;20096;-73
2023/03/29 09:30:34;;;;;;;4.13;1.52;;;;;;;18.17;50.46;99774.63;4995071;28;20544;-74
2023/03/29 09:33:09;;;;;;;3.90;1.50;;;;;;;18.18;50.50;99773.69;4994197;28;20381;-73
2023/03/29 09:35:48;;;;;;;3.80;1.20;;;;;;;18.18;50.57;99772.81;4995165;28;20027;-73
2023/03/29 09:38:16;;;;;;;3.25;1.40;;;;;;;18.20;50.38;99763.91;4994948;28;20563;-72
2023/03/29 09:40:48;;;;;;;2.60;1.20;;;;;;;18.19;50.44;99762.19;4995147;28;20037;-73
2023/03/29 09:43:24;;;;;;;3.88;1.23;;;;;;;18.22;50.55;99756.75;5003373;28;20029;-73
2023/03/29 09:45:54;;;;;;;2.63;1.50;;;;;;;18.23;50.41;99757.63;5014546;28;20053;-73
2023/03/29 09:48:21;;;;;;;2.53;1.30;;;;;;;18.22;50.64;99751.47;5014473;28;20046;-72
2023/03/29 09:50:50;;;;;;;3.92;1.70;;;;;;;18.23;50.73;99745.28;5013923;28;20052;-73
2023/03/29 09:53:18;;;;;;;3.78;1.60;;;;;;;18.24;50.45;99749.66;5009036;28;20520;-73
2023/03/29 09:55:47;;;;;;;4.60;1.60;;;;;;;18.25;50.49;99750.47;4994712;28;20023;-73
2023/03/29 09:58:14;;;;;;;4.50;1.50;;;;;;;18.25;50.41;99735.50;4996343;28;20093;-73
2023/03/29 10:00:39;;;;;;;3.95;1.80;;;;;;;18.27;50.73;99742.50;5014269;28;20036;-73
2023/03/29 10:03:05;;;;;;;2.95;1.42;;;;;;;18.27;50.40;99737.22;5014211;28;20105;-73
2023/03/29 10:05:35;;;;;;;2.75;1.30;;;;;;;18.28;50.34;99734.50;5013838;28;20025;-72
2023/03/29 10:08:13;;;;;;;3.22;1.50;;;;;;;18.28;50.43;99733.63;5014042;28;20026;-72
2023/03/29 10:10:38;;;;;;;4.20;1.45;;;;;;;18.30;50.40;99729.16;5014285;28;20052;-73
2023/03/29 10:13:19;;;;;;;4.32;1.48;;;;;;;18.31;50.64;99728.22;5007867;28;20045;-73
2023/03/29 10:16:06;;;;;;;2.67;1.20;;;;;;;18.33;50.81;99723.72;4993120;28;20132;-73
2023/03/29 10:18:32;;;;;;;;;;;;;;;18.35;50.71;99719.25;4994816;28;20026;-73
2023/03/29 10:21:04;;;;;;;3.63;1.38;;;;;;;18.34;50.81;99717.50;4992524;28;19918;-73
2023/03/29 10:23:35;;;;;;;3.88;1.25;;;;;;;18.36;50.52;99719.16;4994078;28;20022;-73
2023/03/29 10:26:03;;;;;;;2.80;1.30;;;;;;;18.37;50.50;99715.56;4994349;28;20030;-73
2023/03/29 10:28:30;;;;;;;4.82;1.50;;;;;;;18.39;50.51;99718.16;4994137;28;20053;-73
2023/03/29 10:30:59;;;;;;;4.05;1.50;;;;;;;18.40;50.42;99722.50;4993771;28;20614;-72
2023/03/29 10:33:30;;;;;;;4.88;1.80;;;;;;;18.42;50.63;99715.38;4994128;28;20029;-73
2023/03/29 10:35:56;;;;;;;4.40;1.42;;;;;;;18.42;50.64;99718.03;4996116;28;20400;-73
2023/03/29 10:38:26;;;;;;;4.10;1.65;;;;;;;18.43;50.84;99711.81;5013505;28;20095;-73
2023/03/29 10:40:54;;;;;;;4.78;1.38;;;;;;;18.44;50.90;99712.69;5013481;28;20435;-73
2023/03/29 10:43:20;;;;;;;4.20;1.40;;;;;;;18.46;50.52;99708.16;5013557;28;20109;-73
2023/03/29 10:45:52;;;;;;;4.32;1.23;;;;;;;18.45;50.57;99699.38;5013362;28;20030;-72
2023/03/29 10:48:23;;;;;;;3.25;1.50;;;;;;;18.47;50.72;99701.94;5012774;28;20376;-73
2023/03/29 10:50:53;;;;;;;4.60;1.45;;;;;;;18.48;50.52;99691.31;5013020;28;20046;-74
2023/03/29 10:53:29;;;;;;;2.28;1.30;;;;;;;18.48;50.68;99693.97;5007499;28;20033;-73
2023/03/29 10:56:09;;;;;;;2.92;1.50;;;;;;;18.49;50.65;99682.47;4994203;28;20508;-73
2023/03/29 10:58:51;;;;;;;3.42;1.58;;;;;;;18.51;50.86;99683.22;5013028;28;20491;-72
2023/03/29 11:01:33;;;;;;;2.15;1.10;;;;;;;18.50;50.87;99672.75;5012974;28;20033;-72
2023/03/29 11:04:11;;;;;;;3.22;1.70;;;;;;;18.52;50.63;99668.25;5012445;28;20495;-72
2023/03/29 11:07:02;;;;;;;5.20;1.50;;;;;;;18.52;50.78;99663.84;5012583;28;20037;-72
2023/03/29 11:09:46;;;;;;;2.90;1.45;;;;;;;18.55;50.72;99664.59;5012898;28;20029;-72
2023/03/29 11:12:32;;;;;;;3.08;1.30;;;;;;;18.57;50.68;99668.03;4999299;28;20031;-73
2023/03/29 11:15:36;;;;;;;3.65;1.48;;;;;;;18.57;50.70;99671.53;4992933;28;20447;-73
2023/03/29 11:18:43;;;;;;;3.55;1.52;;;;;;;18.59;50.65;99668.81;4986687;28;20046;-73
2023/03/29 11:21:08;;;;;;;5.50;1.67;;;;;;;18.59;50.88;99672.31;4914700;29;20436;-73
2023/03/29 11:23:47;;;;;;;3.83;1.27;;;;;;;18.60;50.98;99666.09;4914009;29;20044;-73
2023/03/29 11:26:18;;;;;;;4.05;1.60;;;;;;;18.62;50.52;99668.66;4905347;29;20053;-73
2023/03/29 11:29:04;;;;;;;2.88;1.33;;;;;;;18.63;50.89;99665.94;4907194;29;20507;-72
2023/03/29 11:31:40;;;;;;;4.15;1.80;;;;;;;18.63;50.85;99651.88;4922538;29;20036;-72
2023/03/29 11:34:11;;;;;;;4.15;1.70;;;;;;;18.65;50.60;99652.66;4922208;29;20102;-73
2023/03/29 11:36:44;;;;;;;2.83;1.30;;;;;;;18.65;50.70;99650.03;4930007;29;20047;-72
2023/03/29 11:39:24;;;;;;;8.10;1.90;;;;;;;18.65;51.05;99652.66;4916785;29;20031;-70
2023/03/29 11:41:55;;;;;;;5.68;1.83;;;;;;;18.67;50.89;99648.16;4931819;29;20024;-70
2023/03/29 11:44:20;;;;;;;5.38;1.40;;;;;;;18.68;50.79;99641.94;4932691;29;20044;-69
2023/03/29 11:46:57;;;;;;;5.72;1.90;;;;;;;18.68;51.12;99639.28;4932231;29;20655;-70